Briefing drone pour Vichy (LFLV)

Rechercher une autre localisation

Conditions de vol :


Nous sommes le : Mercredi 08 février 2023
Il est 22:51 UTC (23:51 LT)

Lever de soleil : 06:33 UTC (07:33 LT)
Coucher de soleil : 17:27 UTC (18:27 LT)

Météo

L'essentiel des conditions de vol

VIGILANCE MÉTÉO FRANCE - Allier (03)
Pas de vigilances particulieres
METAR de LFLV
LFLV 081800Z AUTO 33003KT 300V010 CAVOK 01/M02 Q1030

Date d'émission: 08/02/2023
Heure d'émission: 18:00 UTC
Vent: 330° (variable du 300° au 010°) pour 3 KT (6 km/h)
Visibilité horizontale: > 10 km
Plafond : Plafond et visibilité OK (CAVOK)
Température: 1 °C
Point de rosée: -2 °C
Humidité: 80%
Pression (QNH): 1030 hPa
Prévision 24h pour Vichy
Vent : 29° pour 1 KT (2 km/h)
Temperature Maxi: -0 °C
Temperature Min: -0 °C
Humidité : 81%
Condition : Peu nuageux



Warning: count(): Parameter must be an array or an object that implements Countable in /homepages/6/d509196549/htdocs/droneoxygene/briefing.php on line 743
WEBCAM POUR VICHY

Réglementation

Voler en sécurité

CARTES AERONAUTIQUE 1/500.000
CARTE AZBA (Reseau basse altitude)
CARTES VAC (LFLV)
SUP AIP




Chargement des AIP...
NOTAM (VICHY + Terrain à proximité / FIR )




Chargement des NOTAMS...
CONTACT PREFECTURE 03
Allier (03) : [email protected]


Avertissement : Les données mises à disposition sont indicatives. Oxygène Drone ne pourra être tenu responsable de dégâts causés aux biens et aux personnes.